Página principal
METAR-TAF:

METAR-TAF

Aeroportos :

Dakhla, Marrocos

latitude: 23-43-05N, longitude: 015-55-55W, altura: 11 m

Observação actual do tempo

O boletim foi feito há 10 horas e 6 minutos, às 20:00 UTC
Vento 26 kt de norte
Temperatura 22°C
Humidade 73%
Pressão 1011 hPa
Visibilidade: 8000 m

METAR: GMMH 112000Z 01026KT 8000 NSC 22/17 Q1011 NOSIG

Hora: 07:06 (06:06 UTC)

Previsão

O boletim foi feito há 7 horas e 6 minutos, às 23:00 UTC
Previsão válida de 12 às 00 UTC a 13 às 06 UTC
Vento 20 kt de norte
Visibilidade: 8000 m

TAF: GMMH 112300Z 1200/1306 01020KT 8000 NSC

Observações e previsões do tempo de mais de 4000 aeroportos (mensagens METAR e TAF).

As estações disponíveis são os pontos amarelos e vermelhos sobre o mapa.

Mova o rato sobre o mapa para ver o nome da estação.

Depois clique no ponto para visualizar as observações e previsões meteorológicas.

Para alterar o mapa : clique nos botões verdes com uma cruz preta para aumentar o zoom; no botão verde com uma pitada de zoom; ou nas setas verdes para mapas adjacentes.


METAR-TAF: